Time;durP1;ratioP1;P1;durP2;ratioP2;P2;SDS_P1;SDS_P2;PMS_P1;PMS_P2;Temp;Humidity;BMP_temperature;BMP_pressure;BME280_temperature;BME280_humidity;BME280_pressure;Samples;Min_cycle;Max_cycle;Signal;HPM_P1;HPM_P2
2023/04/28 00:00:48;;;;;;;14.75;6.90;;;;;;;9.13;63.22;101568.94;6097623;19;20017;-72
2023/04/28 00:02:56;;;;;;;14.95;6.32;;;;;;;9.17;62.27;101560.97;6103002;19;20010;-72
2023/04/28 00:05:05;;;;;;;15.60;6.78;;;;;;;9.14;62.22;101558.41;6100223;19;20772;-72
2023/04/28 00:07:10;;;;;;;13.63;6.15;;;;;;;9.10;62.95;101559.38;6100411;19;20015;-72
2023/04/28 00:09:15;;;;;;;14.43;6.55;;;;;;;9.08;63.66;101555.06;6097115;19;20003;-72
2023/04/28 00:11:23;;;;;;;13.10;7.22;;;;;;;9.13;62.31;101548.81;6101336;19;20368;-72
2023/04/28 00:13:28;;;;;;;14.55;7.05;;;;;;;9.11;62.67;101550.63;6100029;19;20306;-72
2023/04/28 00:15:33;;;;;;;13.10;6.57;;;;;;;9.05;61.82;101540.25;6102972;19;20011;-72
2023/04/28 00:17:38;;;;;;;12.07;6.18;;;;;;;9.01;62.39;101554.34;6096269;19;20040;-72
2023/04/28 00:19:43;;;;;;;14.18;8.27;;;;;;;8.96;62.29;101548.34;6100626;19;20533;-72
2023/04/28 00:21:53;;;;;;;13.15;6.55;;;;;;;8.96;62.58;101551.84;6099561;19;20460;-71
2023/04/28 00:23:58;;;;;;;12.02;7.00;;;;;;;8.98;62.31;101538.69;6102817;19;20014;-71
2023/04/28 00:26:03;;;;;;;15.35;6.63;;;;;;;8.93;62.44;101535.31;6097596;19;20019;-72
2023/04/28 00:28:08;;;;;;;12.93;6.65;;;;;;;8.94;62.99;101531.78;6098693;19;20563;-71
2023/04/28 00:30:14;;;;;;;15.52;7.00;;;;;;;8.99;61.93;101515.06;6095888;19;20005;-72
2023/04/28 00:32:22;;;;;;;13.93;6.30;;;;;;;8.99;61.25;101508.97;6102123;19;20010;-72
2023/04/28 00:34:28;;;;;;;12.88;7.45;;;;;;;8.98;61.46;101520.34;6098934;19;20013;-71
2023/04/28 00:36:34;;;;;;;12.82;6.30;;;;;;;8.99;61.91;101511.56;6102080;19;23926;-72
2023/04/28 00:38:43;;;;;;;14.38;8.30;;;;;;;8.97;61.74;101516.00;6099958;19;20006;-71
2023/04/28 00:40:48;;;;;;;13.30;6.40;;;;;;;8.99;61.47;101506.34;6101526;19;20010;-71
2023/04/28 00:42:56;;;;;;;14.05;6.72;;;;;;;8.94;61.90;101506.44;6100840;19;20465;-71
2023/04/28 00:45:05;;;;;;;10.95;5.78;;;;;;;8.93;62.14;101499.47;6102837;19;20439;-72
2023/04/28 00:47:10;;;;;;;11.77;6.38;;;;;;;8.96;61.76;101493.31;6100653;19;20511;-74
2023/04/28 00:49:16;;;;;;;13.25;6.53;;;;;;;9.00;61.49;101490.59;6101667;19;20003;-72
2023/04/28 00:51:26;;;;;;;12.23;6.75;;;;;;;8.98;61.54;101487.13;6101453;19;20010;-72
2023/04/28 00:53:32;;;;;;;13.82;6.72;;;;;;;8.96;61.19;101485.44;6100870;19;20922;-72
2023/04/28 00:55:40;;;;;;;12.23;6.57;;;;;;;8.96;61.21;101488.06;6106120;19;20023;-72
2023/04/28 00:58:00;;;;;;;14.20;6.75;;;;;;;8.95;61.23;101481.06;6105734;19;20681;-74
2023/04/28 01:00:19;;;;;;;11.50;6.47;;;;;;;8.94;60.98;101469.75;6104421;19;20018;-72
2023/04/28 01:02:25;;;;;;;14.05;6.90;;;;;;;8.94;61.78;101468.88;6104463;19;20009;-72
2023/04/28 01:04:32;;;;;;;13.02;6.38;;;;;;;8.98;61.81;101468.78;6104959;19;20007;-72
2023/04/28 01:06:40;;;;;;;14.30;6.65;;;;;;;9.04;61.28;101457.28;6105688;19;20011;-72
2023/04/28 01:08:45;;;;;;;14.82;7.18;;;;;;;8.97;61.54;101458.31;6103873;19;20011;-72
2023/04/28 01:10:56;;;;;;;11.88;7.03;;;;;;;8.98;60.86;101460.91;6104416;19;20048;-71
2023/04/28 01:13:02;;;;;;;13.95;7.25;;;;;;;8.94;61.35;101455.78;6103414;19;20010;-72
2023/04/28 01:15:09;;;;;;;15.80;7.07;;;;;;;8.96;61.66;101448.75;6103372;19;20002;-72
2023/04/28 01:17:14;;;;;;;14.55;7.28;;;;;;;8.92;61.39;101445.31;6102277;19;20014;-72
2023/04/28 01:19:23;;;;;;;14.25;7.25;;;;;;;9.03;61.21;101442.47;6105819;19;20503;-72
2023/04/28 01:21:32;;;;;;;;;;;;;;;8.96;61.02;101446.13;6101639;19;20111;-72
2023/04/28 01:23:37;;;;;;;15.30;8.43;;;;;;;8.95;61.22;101444.38;6107159;19;19927;-72
2023/04/28 01:25:45;;;;;;;15.07;7.03;;;;;;;8.92;61.08;101445.31;6104447;19;20002;-72
2023/04/28 01:27:51;;;;;;;15.43;6.95;;;;;;;8.97;60.75;101440.81;6108783;19;20381;-73
2023/04/28 01:29:57;;;;;;;15.50;7.38;;;;;;;8.97;61.49;101442.59;6103706;19;20803;-72
2023/04/28 01:32:03;;;;;;;13.73;6.93;;;;;;;8.99;60.76;101441.66;6108376;19;20006;-72
2023/04/28 01:34:08;;;;;;;12.07;6.32;;;;;;;8.96;60.72;101430.41;6109153;19;20014;-72
2023/04/28 01:36:13;;;;;;;13.43;6.47;;;;;;;8.98;61.00;101418.13;6107488;19;20679;-71
2023/04/28 01:38:18;;;;;;;12.57;7.25;;;;;;;8.95;60.73;101424.28;6098134;19;20010;-73
2023/04/28 01:40:23;;;;;;;15.35;7.22;;;;;;;8.98;60.91;101407.63;6105818;19;20696;-79
2023/04/28 01:42:31;;;;;;;17.08;6.75;;;;;;;8.96;60.93;101394.56;6106261;19;20372;-78
2023/04/28 01:44:36;;;;;;;15.70;7.15;;;;;;;8.90;60.53;101399.97;6106424;19;20017;-79
2023/04/28 01:46:41;;;;;;;15.38;7.40;;;;;;;8.86;60.69;101408.78;6103480;19;20053;-78
2023/04/28 01:48:46;;;;;;;13.40;7.40;;;;;;;8.91;61.06;101416.53;6105572;19;20348;-79
2023/04/28 01:50:52;;;;;;;13.50;6.53;;;;;;;8.89;61.00;101420.94;6106368;19;20011;-80
2023/04/28 01:52:57;;;;;;;14.10;6.50;;;;;;;8.86;60.90;101411.41;6100569;19;20017;-80
2023/04/28 01:55:03;;;;;;;12.18;6.50;;;;;;;8.91;60.50;101413.91;6107037;19;20513;-80
2023/04/28 01:57:08;;;;;;;16.45;8.35;;;;;;;8.96;60.28;101401.56;6103239;19;20014;-79
2023/04/28 01:59:17;;;;;;;14.95;6.82;;;;;;;8.87;60.39;101400.00;6106242;19;20006;-79
2023/04/28 02:01:28;;;;;;;12.80;6.95;;;;;;;8.84;61.14;101400.09;6104433;19;20077;-79
2023/04/28 02:03:34;;;;;;;12.40;6.85;;;;;;;8.84;60.93;101399.22;6104517;19;20591;-79
2023/04/28 02:05:42;;;;;;;13.52;6.40;;;;;;;8.86;60.73;101398.28;6106309;19;20481;-79
2023/04/28 02:07:50;;;;;;;15.30;6.80;;;;;;;8.88;60.83;101393.03;6106001;19;20082;-78
2023/04/28 02:09:55;;;;;;;16.60;7.97;;;;;;;8.95;60.05;101389.34;6104860;19;20022;-71
2023/04/28 02:12:01;;;;;;;18.73;7.70;;;;;;;8.88;60.38;101386.03;6103320;19;20027;-71
2023/04/28 02:14:06;;;;;;;15.43;7.90;;;;;;;8.91;60.67;101375.47;6103207;19;20002;-71
2023/04/28 02:16:13;;;;;;;13.23;7.38;;;;;;;8.89;61.04;101371.16;6099445;19;20003;-72
2023/04/28 02:18:19;;;;;;;19.15;7.40;;;;;;;8.86;60.79;101374.72;6098085;19;20067;-72
2023/04/28 02:20:24;;;;;;;14.98;7.65;;;;;;;8.82;61.48;101374.81;6101690;19;20018;-72
2023/04/28 02:22:29;;;;;;;14.95;6.88;;;;;;;8.81;61.04;101371.34;6099746;19;20074;-72
2023/04/28 02:24:37;;;;;;;14.82;7.03;;;;;;;8.83;61.12;101372.16;6102819;19;20022;-72
2023/04/28 02:26:42;;;;;;;12.63;6.88;;;;;;;8.87;61.20;101362.47;6100643;19;20014;-72
2023/04/28 02:28:50;;;;;;;12.93;7.18;;;;;;;8.93;60.58;101362.31;6101421;19;20007;-72
2023/04/28 02:30:55;;;;;;;13.65;6.40;;;;;;;8.89;60.63;101366.75;6101593;19;20006;-72
2023/04/28 02:33:03;;;;;;;15.32;7.93;;;;;;;8.88;60.95;101364.19;6102751;19;20026;-72
2023/04/28 02:35:09;;;;;;;15.68;7.63;;;;;;;8.83;61.06;101353.81;6102994;19;20038;-72
2023/04/28 02:37:14;;;;;;;15.43;7.43;;;;;;;8.81;61.37;101357.38;6100637;19;20011;-72
2023/04/28 02:39:25;;;;;;;15.32;7.47;;;;;;;8.79;61.19;101350.44;6099375;19;20299;-72
2023/04/28 02:41:31;;;;;;;11.18;6.32;;;;;;;8.83;61.54;101347.72;6100991;19;20011;-72
2023/04/28 02:43:36;;;;;;;14.27;8.00;;;;;;;8.81;61.20;101345.13;6103494;19;20023;-72
2023/04/28 02:45:41;;;;;;;15.00;7.78;;;;;;;8.79;61.57;101344.31;6100832;19;20563;-72
2023/04/28 02:47:46;;;;;;;14.52;8.10;;;;;;;8.80;61.70;101351.28;6101460;19;20023;-72
2023/04/28 02:49:54;;;;;;;16.40;6.90;;;;;;;8.81;61.52;101354.75;6103039;19;20021;-72
2023/04/28 02:51:59;;;;;;;14.27;7.75;;;;;;;8.76;61.80;101350.47;6103453;19;20030;-72
2023/04/28 02:54:05;;;;;;;14.40;7.80;;;;;;;8.77;61.77;101357.47;6101759;19;20590;-72
2023/04/28 02:56:10;;;;;;;15.05;7.63;;;;;;;8.72;62.07;101346.22;6102484;19;20006;-72
2023/04/28 02:58:16;;;;;;;13.52;7.15;;;;;;;8.74;61.85;101341.81;6096853;19;20011;-73
2023/04/28 03:00:24;;;;;;;12.15;7.05;;;;;;;8.81;62.07;101346.91;6100021;19;20010;-72
2023/04/28 03:02:31;;;;;;;15.90;8.20;;;;;;;8.79;62.07;101350.44;6097498;19;20029;-73
2023/04/28 03:04:39;;;;;;;15.48;7.50;;;;;;;8.80;62.38;101340.81;6102409;19;20405;-72
2023/04/28 03:06:49;;;;;;;15.57;7.80;;;;;;;8.73;62.18;101345.31;6102880;19;20006;-72
2023/04/28 03:08:54;;;;;;;14.50;7.50;;;;;;;8.82;62.12;101344.25;6102398;19;20090;-72
2023/04/28 03:11:00;;;;;;;14.80;7.03;;;;;;;8.76;62.30;101344.38;6100151;19;20009;-72
2023/04/28 03:13:05;;;;;;;15.13;8.10;;;;;;;8.72;62.46;101338.38;6100810;19;20007;-72
2023/04/28 03:15:11;;;;;;;14.75;7.65;;;;;;;8.77;62.42;101333.88;6100966;19;20743;-72
2023/04/28 03:17:19;;;;;;;13.57;6.75;;;;;;;8.73;62.28;101332.22;6096078;19;20006;-72
2023/04/28 03:19:25;;;;;;;13.43;7.63;;;;;;;8.72;62.77;101329.66;6102744;19;20006;-72
2023/04/28 03:21:31;;;;;;;16.23;7.88;;;;;;;8.78;62.89;101326.88;6100966;19;20042;-73
2023/04/28 03:23:41;;;;;;;15.45;7.40;;;;;;;8.76;62.46;101334.75;6101749;19;20006;-72
2023/04/28 03:25:46;;;;;;;13.60;7.05;;;;;;;8.78;62.38;101321.63;6100784;19;20102;-72
2023/04/28 03:27:51;;;;;;;14.15;7.78;;;;;;;8.79;62.88;101308.50;6100610;19;20527;-72
2023/04/28 03:29:56;;;;;;;12.73;6.97;;;;;;;8.69;63.00;101304.38;6104634;19;20013;-72
2023/04/28 03:32:01;;;;;;;16.15;7.65;;;;;;;8.74;62.98;101307.75;6098543;19;20013;-72
2023/04/28 03:34:07;;;;;;;14.57;6.53;;;;;;;8.75;63.00;101312.09;6101586;19;20006;-73
2023/04/28 03:36:12;;;;;;;17.00;7.95;;;;;;;8.69;63.21;101307.00;6101537;19;20027;-72
2023/04/28 03:38:19;;;;;;;13.15;7.65;;;;;;;8.64;63.51;101303.66;6099275;19;20010;-73
2023/04/28 03:40:28;;;;;;;15.80;7.28;;;;;;;8.72;62.70;101290.34;6099485;19;20370;-73
2023/04/28 03:42:34;;;;;;;14.13;8.00;;;;;;;8.65;63.66;101299.25;6098583;19;20031;-73
2023/04/28 03:44:40;;;;;;;16.10;7.70;;;;;;;8.67;63.50;101293.09;6101013;19;20078;-73
2023/04/28 03:46:46;;;;;;;12.80;7.15;;;;;;;8.65;63.57;101284.41;6099762;19;20006;-73
2023/04/28 03:48:53;;;;;;;15.38;7.72;;;;;;;8.65;63.81;101281.78;6100332;19;20225;-73
2023/04/28 03:50:57;;;;;;;14.60;7.78;;;;;;;8.62;64.18;101276.63;6099193;19;20556;-72
2023/04/28 03:53:03;;;;;;;16.60;8.10;;;;;;;8.69;63.45;101277.31;6098876;19;20040;-73
2023/04/28 03:55:09;;;;;;;13.40;7.03;;;;;;;8.66;63.74;101282.63;6101055;19;20007;-73
2023/04/28 03:57:17;;;;;;;18.30;7.80;;;;;;;8.67;64.14;101268.66;6099481;19;20006;-72
2023/04/28 03:59:25;;;;;;;17.42;8.35;;;;;;;8.64;64.11;101253.00;6101108;19;20051;-72
2023/04/28 04:01:30;;;;;;;16.35;7.30;;;;;;;8.61;64.39;101250.44;6098203;19;20013;-72
2023/04/28 04:03:35;;;;;;;17.48;8.68;;;;;;;8.59;64.44;101255.75;6098357;19;20018;-73
2023/04/28 04:05:42;;;;;;;15.13;6.70;;;;;;;8.65;64.39;101263.44;6100672;19;20273;-72
2023/04/28 04:07:48;;;;;;;17.45;8.07;;;;;;;8.64;64.63;101261.72;6099782;19;20487;-72
2023/04/28 04:09:53;;;;;;;13.25;7.60;;;;;;;8.56;64.60;101247.97;6100321;19;20586;-73
2023/04/28 04:11:58;;;;;;;15.30;8.10;;;;;;;8.58;65.20;101238.28;6100826;19;20007;-72
2023/04/28 04:14:06;;;;;;;16.27;8.88;;;;;;;8.58;64.97;101240.91;6099398;19;20563;-72
2023/04/28 04:16:14;;;;;;;15.57;7.93;;;;;;;8.59;64.87;101233.94;6100421;19;20036;-73
2023/04/28 04:18:22;;;;;;;16.92;8.23;;;;;;;8.60;65.27;101233.88;6094918;19;20074;-72
2023/04/28 04:20:28;;;;;;;16.20;8.13;;;;;;;8.61;65.29;101227.75;6104178;19;20088;-71
2023/04/28 04:22:34;;;;;;;16.38;8.35;;;;;;;8.58;65.27;101227.81;6104570;19;20040;-71
2023/04/28 04:24:40;;;;;;;15.40;7.97;;;;;;;8.65;64.99;101237.22;6105456;19;20595;-72
2023/04/28 04:26:45;;;;;;;14.63;8.15;;;;;;;8.61;65.37;101240.84;6105303;19;20011;-72
2023/04/28 04:28:51;;;;;;;17.40;8.60;;;;;;;8.55;65.26;101246.22;6104281;19;20015;-72
2023/04/28 04:30:58;;;;;;;17.27;7.60;;;;;;;8.53;65.46;101250.63;6106385;19;20066;-72
2023/04/28 04:33:04;;;;;;;14.88;8.18;;;;;;;8.60;64.99;101257.44;6110920;19;20391;-73
2023/04/28 04:35:10;;;;;;;15.95;7.70;;;;;;;8.64;65.32;101260.88;6109652;19;20036;-72
2023/04/28 04:37:21;;;;;;;14.82;7.45;;;;;;;8.62;65.29;101263.53;6109356;19;20015;-71
2023/04/28 04:39:26;;;;;;;17.23;7.47;;;;;;;8.60;65.77;101257.44;6104545;19;20007;-73
2023/04/28 04:41:31;;;;;;;16.20;7.93;;;;;;;8.67;65.61;101256.41;6107795;19;20022;-72
2023/04/28 04:43:36;;;;;;;17.42;9.55;;;;;;;8.71;65.50;101250.16;6107118;19;20036;-72
2023/04/28 04:45:41;;;;;;;19.42;8.25;;;;;;;8.70;65.86;101253.69;6104477;19;20603;-73
2023/04/28 04:47:49;;;;;;;16.13;8.55;;;;;;;8.66;65.97;101249.44;6104596;19;20067;-72
2023/04/28 04:49:54;;;;;;;18.67;9.10;;;;;;;8.67;67.02;101250.31;6104537;19;20480;-73
2023/04/28 04:52:00;;;;;;;15.52;8.40;;;;;;;8.66;67.06;101249.44;6106905;19;20025;-72
2023/04/28 04:54:07;;;;;;;14.75;7.72;;;;;;;8.71;67.68;101247.53;6102196;19;20014;-72
2023/04/28 04:56:12;;;;;;;18.38;9.32;;;;;;;8.63;70.39;101243.41;6104282;19;20018;-72
2023/04/28 04:58:18;;;;;;;18.85;9.32;;;;;;;8.61;71.54;101248.72;6101536;19;20110;-72
2023/04/28 05:00:23;;;;;;;19.67;9.20;;;;;;;8.53;71.24;101251.53;6103706;19;20010;-79
2023/04/28 05:02:28;;;;;;;20.83;9.27;;;;;;;8.59;72.38;101249.66;6106170;19;20190;-78
2023/04/28 05:04:37;;;;;;;15.95;9.13;;;;;;;8.52;72.50;101256.78;6106316;19;20064;-78
2023/04/28 05:06:42;;;;;;;16.25;9.13;;;;;;;8.45;73.75;101250.84;6105168;19;20281;-78
2023/04/28 05:08:49;;;;;;;18.48;9.50;;;;;;;8.45;74.46;101249.97;6105147;19;20019;-79
2023/04/28 05:10:54;;;;;;;17.75;9.50;;;;;;;8.40;74.50;101259.69;6105521;19;20556;-79
2023/04/28 05:12:59;;;;;;;17.75;9.65;;;;;;;8.39;76.10;101263.19;6107699;19;20476;-78
2023/04/28 05:15:06;;;;;;;18.10;9.80;;;;;;;8.36;75.07;101270.22;6104411;19;20011;-78
2023/04/28 05:17:11;;;;;;;17.73;9.40;;;;;;;8.29;75.76;101258.19;6105814;19;20006;-78
2023/04/28 05:19:17;;;;;;;18.17;9.65;;;;;;;8.41;75.59;101261.44;6104551;19;20022;-77
2023/04/28 05:21:24;;;;;;;18.88;9.85;;;;;;;8.30;76.85;101261.69;6104077;19;20011;-78
2023/04/28 05:23:29;;;;;;;18.45;9.95;;;;;;;8.27;76.72;101256.53;6107607;19;21130;-76
2023/04/28 05:25:36;;;;;;;22.38;10.27;;;;;;;8.34;77.53;101247.59;6103718;19;20036;-76
2023/04/28 05:27:41;;;;;;;19.35;10.00;;;;;;;8.29;77.67;101231.13;6104212;19;20549;-75
2023/04/28 05:29:46;;;;;;;20.05;9.95;;;;;;;8.10;79.50;101228.97;6101997;19;20015;-75
2023/04/28 05:31:51;;;;;;;23.45;10.40;;;;;;;8.16;79.62;101222.72;6101051;19;20043;-75
2023/04/28 05:33:57;;;;;;;17.75;9.35;;;;;;;8.02;79.99;101225.66;6104688;19;20446;-77
2023/04/28 05:36:02;;;;;;;21.42;10.82;;;;;;;7.93;80.65;101217.19;6100699;19;20084;-75
2023/04/28 05:38:10;;;;;;;19.85;9.88;;;;;;;7.92;81.04;101208.47;6103551;19;20122;-76
2023/04/28 05:40:16;;;;;;;20.90;11.32;;;;;;;7.89;81.52;101211.16;6098744;19;20007;-76
2023/04/28 05:42:23;;;;;;;22.83;10.57;;;;;;;7.96;81.76;101209.28;6098298;19;20003;-72
2023/04/28 05:44:30;;;;;;;22.90;11.10;;;;;;;7.94;82.21;101211.06;6102890;19;20003;-72
2023/04/28 05:46:35;;;;;;;24.45;10.93;;;;;;;7.93;82.02;101209.34;6083675;19;20011;-72
2023/04/28 05:48:44;;;;;;;23.50;11.23;;;;;;;7.99;83.12;101211.81;6102339;19;20019;-73
2023/04/28 05:50:49;;;;;;;22.75;11.07;;;;;;;7.96;83.17;101217.13;6103912;19;20014;-74
2023/04/28 05:52:55;;;;;;;24.60;11.55;;;;;;;7.99;83.19;101211.81;6099853;19;20365;-73
2023/04/28 05:55:03;;;;;;;22.33;12.02;;;;;;;8.03;83.09;101211.72;6092547;19;20021;-72
2023/04/28 05:57:08;;;;;;;23.52;11.65;;;;;;;8.01;83.76;101213.50;6100010;19;20047;-72
2023/04/28 05:59:13;;;;;;;21.50;11.55;;;;;;;8.04;84.15;101217.78;6097306;19;20015;-72
2023/04/28 06:01:18;;;;;;;23.75;12.52;;;;;;;8.08;84.14;101214.19;6096368;19;20027;-72
2023/04/28 06:03:23;;;;;;;25.67;12.38;;;;;;;8.14;83.81;101208.84;6098845;19;20023;-71
2023/04/28 06:05:29;;;;;;;22.40;11.30;;;;;;;8.17;83.32;101202.66;6097482;19;20046;-72
2023/04/28 06:07:35;;;;;;;24.80;11.65;;;;;;;8.31;83.21;101200.53;6097900;19;20153;-71
2023/04/28 06:09:41;;;;;;;18.52;10.32;;;;;;;8.30;83.40;101209.31;6103136;19;20086;-70
2023/04/28 06:11:48;;;;;;;22.58;12.35;;;;;;;8.29;83.51;101212.81;6096798;19;20010;-71
2023/04/28 06:13:54;;;;;;;25.33;12.68;;;;;;;8.29;83.57;101213.69;6103974;19;20027;-71
2023/04/28 06:15:59;;;;;;;24.95;11.73;;;;;;;8.30;83.07;101220.63;6103311;19;20040;-70
2023/04/28 06:18:05;;;;;;;25.55;12.20;;;;;;;8.26;84.13;101220.75;6097341;19;20006;-70
2023/04/28 06:20:12;;;;;;;24.10;12.25;;;;;;;8.31;83.71;101217.09;6102538;19;20003;-72
2023/04/28 06:22:18;;;;;;;25.25;12.07;;;;;;;8.33;83.73;101217.09;6096319;19;20014;-71
2023/04/28 06:24:23;;;;;;;28.00;13.75;;;;;;;8.44;83.20;101222.06;6096238;19;20007;-70
2023/04/28 06:26:28;;;;;;;23.95;12.98;;;;;;;8.41;83.29;101217.78;6103172;19;20057;-72
2023/04/28 06:28:36;;;;;;;24.77;13.27;;;;;;;8.54;83.01;101215.72;6098812;19;20094;-72
2023/04/28 06:30:43;;;;;;;23.15;12.68;;;;;;;8.59;83.02;101205.13;6102989;19;20018;-73
2023/04/28 06:32:48;;;;;;;25.08;13.25;;;;;;;8.64;83.37;101200.63;6096833;19;20011;-72
2023/04/28 06:34:54;;;;;;;32.10;15.32;;;;;;;8.70;83.33;101193.44;6101299;19;20017;-71
2023/04/28 06:37:02;;;;;;;26.48;13.60;;;;;;;8.68;83.79;101195.22;6102602;19;20364;-72
2023/04/28 06:39:07;;;;;;;25.30;13.48;;;;;;;8.67;84.38;101193.53;6095957;19;20013;-71
2023/04/28 06:41:12;;;;;;;25.02;13.52;;;;;;;8.80;84.81;101188.81;6095810;19;20018;-71
2023/04/28 06:43:19;;;;;;;28.42;13.20;;;;;;;8.93;85.02;101190.19;6078620;19;20085;-71
2023/04/28 06:45:30;;;;;;;27.98;14.75;;;;;;;8.97;85.71;101190.94;6098279;19;20036;-75
2023/04/28 06:47:54;;;;;;;29.38;14.90;;;;;;;8.91;86.43;101184.13;6098248;19;20085;-72
2023/04/28 06:50:40;;;;;;;27.02;14.50;;;;;;;8.90;87.79;101192.91;6092980;19;20028;-72
2023/04/28 06:56:16;;;;;;;27.60;14.63;;;;;;;8.96;88.12;101195.34;6002036;19;20015;-78
2023/04/28 06:58:23;;;;;;;30.80;16.17;;;;;;;9.06;87.70;101185.47;6102127;19;19998;-79
2023/04/28 07:00:31;;;;;;;36.40;17.33;;;;;;;8.96;88.83;101191.88;6101841;19;20459;-79
2023/04/28 07:02:36;;;;;;;33.38;16.08;;;;;;;9.04;88.60;101191.66;6103499;19;20625;-79
2023/04/28 07:04:41;;;;;;;33.30;17.17;;;;;;;9.06;89.03;101185.47;6102528;19;20779;-79
2023/04/28 07:06:46;;;;;;;34.97;18.33;;;;;;;9.04;89.58;101189.88;6104322;19;20003;-79
2023/04/28 07:08:51;;;;;;;42.28;19.08;;;;;;;9.15;89.06;101194.81;6106004;19;20032;-80
2023/04/28 07:10:56;;;;;;;38.78;18.30;;;;;;;9.23;89.00;101198.94;6109008;19;20014;-80
2023/04/28 07:13:02;;;;;;;33.90;17.33;;;;;;;9.11;89.50;101199.31;6112420;19;20027;-81
2023/04/28 07:15:08;;;;;;;37.35;18.45;;;;;;;9.10;90.56;101196.72;6113649;19;20011;-83
2023/04/28 07:17:16;;;;;;;35.42;17.63;;;;;;;9.22;90.21;101202.47;6112334;19;20455;-83
2023/04/28 07:19:21;;;;;;;40.53;20.33;;;;;;;9.33;89.62;101196.06;6111270;19;20011;-84
2023/04/28 07:21:27;;;;;;;44.28;20.75;;;;;;;9.19;90.69;101197.31;6112790;19;20067;-86
2023/04/28 07:23:32;;;;;;;43.33;20.85;;;;;;;9.29;90.79;101204.91;6114537;19;20898;-87
2023/04/28 07:25:38;;;;;;;44.55;18.80;;;;;;;9.42;90.44;101195.75;6108497;19;20043;-84
2023/04/28 07:27:44;;;;;;;53.15;21.85;;;;;;;9.51;90.71;101192.88;6109378;19;20007;-76
2023/04/28 07:29:48;;;;;;;46.80;21.83;;;;;;;9.62;89.76;101192.53;6104296;19;20445;-76
2023/04/28 07:31:54;;;;;;;54.42;23.88;;;;;;;9.61;90.42;101194.31;6100087;19;20039;-77
2023/04/28 07:34:02;;;;;;;49.17;22.88;;;;;;;9.84;90.45;101190.94;6095947;19;20344;-76
2023/04/28 07:36:08;;;;;;;54.05;22.70;;;;;;;10.12;90.08;101187.44;6104449;19;20025;-75
2023/04/28 07:38:13;;;;;;;52.22;23.25;;;;;;;10.27;90.39;101191.34;6105664;19;20014;-76
2023/04/28 07:40:19;;;;;;;58.75;25.13;;;;;;;10.39;90.20;101188.31;6099175;19;20042;-76
2023/04/28 07:42:24;;;;;;;62.20;26.27;;;;;;;10.38;90.84;101186.59;6104073;19;20573;-76
2023/04/28 07:44:29;;;;;;;64.57;27.20;;;;;;;10.16;90.58;101191.66;6103452;19;20026;-76
2023/04/28 07:46:35;;;;;;;55.78;24.67;;;;;;;10.30;91.34;101192.13;6100832;19;20022;-76
2023/04/28 07:48:40;;;;;;;58.60;26.63;;;;;;;10.41;90.59;101190.91;6100152;19;20018;-76
2023/04/28 07:50:48;;;;;;;60.65;27.05;;;;;;;10.55;90.51;101191.25;6101719;19;20271;-76
2023/04/28 07:52:53;;;;;;;67.15;25.45;;;;;;;10.45;90.81;101188.13;6100905;19;20193;-76
2023/04/28 07:54:58;;;;;;;59.20;26.52;;;;;;;10.47;90.78;101183.66;6102017;19;20010;-71
2023/04/28 07:57:04;;;;;;;63.67;26.45;;;;;;;10.51;90.86;101187.91;6102597;19;20084;-74
2023/04/28 07:59:09;;;;;;;57.15;25.40;;;;;;;10.49;90.85;101184.47;6098227;19;20007;-71
2023/04/28 08:01:14;;;;;;;58.78;25.88;;;;;;;10.57;90.92;101183.34;6099870;19;20052;-71
2023/04/28 08:03:20;;;;;;;64.78;25.45;;;;;;;10.51;91.31;101184.41;6100591;19;20040;-72
2023/04/28 08:05:25;;;;;;;67.32;26.25;;;;;;;10.52;91.29;101186.13;6106536;19;20188;-73
2023/04/28 08:07:33;;;;;;;57.72;25.20;;;;;;;10.53;92.01;101182.56;6107785;19;20582;-73
2023/04/28 08:09:38;;;;;;;65.90;26.35;;;;;;;10.34;92.40;101190.22;6106423;19;20015;-72
2023/04/28 08:11:45;;;;;;;67.97;26.48;;;;;;;10.41;92.14;101188.28;6106609;19;20050;-72
2023/04/28 08:13:53;;;;;;;62.83;26.73;;;;;;;10.51;91.92;101185.28;6107728;19;20365;-72
2023/04/28 08:15:59;;;;;;;68.00;27.25;;;;;;;10.53;92.62;101180.81;6105990;19;20002;-72
2023/04/28 08:18:05;;;;;;;58.30;26.13;;;;;;;10.58;92.72;101182.41;6106771;19;20032;-73
2023/04/28 08:20:14;;;;;;;62.45;27.63;;;;;;;10.70;92.54;101187.25;6107202;19;20043;-72
2023/04/28 08:22:19;;;;;;;63.63;27.15;;;;;;;10.67;93.13;101187.38;6106492;19;20011;-72
2023/04/28 08:24:29;;;;;;;59.88;27.50;;;;;;;10.74;93.03;101192.34;6106610;19;20479;-73
2023/04/28 08:26:36;;;;;;;58.45;26.10;;;;;;;10.80;93.75;101190.41;6105676;19;20081;-72
2023/04/28 08:28:41;;;;;;;57.97;25.33;;;;;;;10.87;93.59;101192.75;6109233;19;20394;-72
2023/04/28 08:30:46;;;;;;;51.38;24.88;;;;;;;10.97;93.04;101180.97;6105660;19;20009;-72
2023/04/28 08:32:51;;;;;;;49.70;24.48;;;;;;;11.24;92.40;101187.91;6106692;19;20139;-72
2023/04/28 08:34:56;;;;;;;55.15;24.17;;;;;;;11.04;93.44;101180.78;6105464;19;20615;-72
2023/04/28 08:37:01;;;;;;;51.00;24.65;;;;;;;10.95;94.05;101182.84;6105815;19;20007;-73
2023/04/28 08:39:07;;;;;;;50.22;22.77;;;;;;;10.96;94.16;101175.81;6106137;19;20032;-72
2023/04/28 08:41:18;;;;;;;45.83;21.35;;;;;;;11.13;93.82;101170.75;6103558;19;20039;-72
2023/04/28 08:43:23;;;;;;;45.20;20.98;;;;;;;11.17;93.70;101176.78;6106705;19;20014;-73
2023/04/28 08:45:32;;;;;;;46.75;21.10;;;;;;;11.25;94.92;101176.50;6108364;19;20190;-73
2023/04/28 08:47:44;;;;;;;41.75;21.50;;;;;;;11.49;93.54;101174.69;6106879;19;20080;-73
2023/04/28 08:49:51;;;;;;;39.47;19.30;;;;;;;11.54;93.55;101175.38;6101127;19;20087;-72
2023/04/28 08:51:58;;;;;;;35.22;17.55;;;;;;;11.61;93.27;101172.44;6100658;19;20003;-72
2023/04/28 08:54:06;;;;;;;36.33;18.50;;;;;;;11.64;92.83;101174.94;6102695;19;20060;-72
2023/04/28 08:56:17;;;;;;;35.88;18.40;;;;;;;11.76;92.89;101175.38;6102594;19;20007;-73
2023/04/28 08:58:24;;;;;;;35.10;18.88;;;;;;;11.83;92.60;101169.78;6100210;19;20010;-73
2023/04/28 09:00:29;;;;;;;30.10;18.63;;;;;;;11.76;92.20;101173.59;6101002;19;20513;-72
2023/04/28 09:02:36;;;;;;;31.05;16.52;;;;;;;12.07;91.99;101167.09;6105774;19;20586;-74
2023/04/28 09:04:42;;;;;;;33.15;18.42;;;;;;;12.08;91.51;101159.16;6103863;19;20583;-73
2023/04/28 09:06:50;;;;;;;28.45;17.00;;;;;;;12.09;91.51;101167.91;6107274;19;20024;-73
2023/04/28 09:08:55;;;;;;;29.38;17.13;;;;;;;12.31;91.35;101165.22;6106439;19;20324;-71
2023/04/28 09:11:12;;;;;;;28.75;17.23;;;;;;;12.36;90.96;101160.59;6105749;19;20022;-73
2023/04/28 09:13:29;;;;;;;29.45;17.55;;;;;;;12.50;91.30;101162.66;6104081;19;20441;-72
2023/04/28 09:15:36;;;;;;;29.70;17.95;;;;;;;12.47;90.56;101153.09;6097446;19;20781;-72
2023/04/28 09:17:51;;;;;;;31.73;19.38;;;;;;;12.57;91.02;101158.81;6103806;19;20035;-74
2023/04/28 09:19:56;;;;;;;32.53;18.67;;;;;;;12.50;90.31;101150.31;6099416;19;20014;-75
2023/04/28 09:22:02;;;;;;;32.97;19.65;;;;;;;12.50;90.60;101152.09;6099506;19;20035;-72
2023/04/28 09:24:32;;;;;;;32.60;20.67;;;;;;;12.49;90.67;101155.66;6095736;19;20035;-72
2023/04/28 09:26:53;;;;;;;31.20;18.98;;;;;;;12.51;90.85;101151.19;6106835;19;20019;-73
2023/04/28 09:29:18;;;;;;;34.80;20.42;;;;;;;12.64;90.88;101147.09;6106625;19;20011;-72
2023/04/28 09:31:28;;;;;;;38.08;21.45;;;;;;;12.66;90.98;101150.50;6106607;19;20078;-73
2023/04/28 09:33:33;;;;;;;35.45;20.05;;;;;;;12.76;91.04;101153.59;6104353;19;20014;-72
2023/04/28 09:35:42;;;;;;;35.80;20.50;;;;;;;12.74;90.92;101151.03;6098829;19;20077;-72
2023/04/28 09:37:49;;;;;;;36.20;21.70;;;;;;;12.94;90.75;101152.75;6104950;19;20032;-72
2023/04/28 09:39:55;;;;;;;30.48;18.77;;;;;;;12.84;89.98;101154.09;6103196;19;20011;-71
2023/04/28 09:42:02;;;;;;;29.60;17.45;;;;;;;12.89;90.88;101148.63;6078395;19;20300;-73
2023/04/28 09:44:20;;;;;;;16.58;10.98;;;;;;;12.82;90.47;101152.47;6106124;19;20007;-73
2023/04/28 09:46:31;;;;;;;14.00;7.25;;;;;;;12.82;91.15;101153.34;6098590;19;20498;-73
2023/04/28 09:48:37;;;;;;;9.70;5.50;;;;;;;12.67;91.90;101154.88;6102998;19;20006;-72